Time;durP1;ratioP1;P1;durP2;ratioP2;P2;SDS_P1;SDS_P2;PMS_P1;PMS_P2;Temp;Humidity;BMP_temperature;BMP_pressure;BME280_temperature;BME280_humidity;BME280_pressure;Samples;Min_cycle;Max_cycle;Signal;HPM_P1;HPM_P2
2022/02/19 00:01:06;;;;;;;9.20;2.93;;;8.90;64.00;;;;;;4969053;28;20292;-85
2022/02/19 00:03:32;;;;;;;6.20;2.87;;;8.90;64.10;;;;;;4967621;28;20211;-85
2022/02/19 00:05:57;;;;;;;7.37;2.63;;;8.90;64.70;;;;;;4974759;28;20190;-85
2022/02/19 00:08:23;;;;;;;10.83;3.20;;;8.90;64.40;;;;;;4972233;28;20318;-85
2022/02/19 00:10:49;;;;;;;5.80;2.50;;;8.90;64.80;;;;;;4973135;28;20198;-85
2022/02/19 00:13:15;;;;;;;6.53;2.53;;;8.90;65.00;;;;;;4983237;28;20290;-85
2022/02/19 00:15:41;;;;;;;8.57;2.63;;;8.90;63.90;;;;;;4973727;28;20239;-85
2022/02/19 00:18:06;;;;;;;9.93;2.83;;;8.80;63.60;;;;;;4976676;28;20191;-86
2022/02/19 00:20:32;;;;;;;8.47;3.00;;;8.80;63.30;;;;;;4977338;28;20645;-86
2022/02/19 00:22:59;;;;;;;6.93;2.97;;;8.80;64.20;;;;;;4973218;28;20700;-85
2022/02/19 00:25:25;;;;;;;9.43;2.80;;;8.80;64.10;;;;;;4964777;28;20187;-85
2022/02/19 00:27:51;;;;;;;6.67;3.27;;;8.80;63.30;;;;;;4992147;28;20190;-85
2022/02/19 00:30:17;;;;;;;6.63;2.90;;;8.80;63.30;;;;;;4978541;28;20199;-85
2022/02/19 00:32:42;;;;;;;8.73;2.83;;;8.60;64.00;;;;;;4964073;28;20253;-85
2022/02/19 00:35:08;;;;;;;8.93;2.87;;;8.70;62.70;;;;;;4977444;28;20187;-85
2022/02/19 00:37:34;;;;;;;7.87;2.77;;;8.70;62.90;;;;;;4977523;28;20273;-85
2022/02/19 00:40:00;;;;;;;6.97;2.97;;;8.70;62.60;;;;;;4970565;28;20226;-85
2022/02/19 00:42:26;;;;;;;7.90;2.67;;;8.70;62.30;;;;;;4973265;28;20222;-85
2022/02/19 00:44:52;;;;;;;5.07;2.33;;;8.60;62.00;;;;;;4977650;28;20201;-85
2022/02/19 00:47:18;;;;;;;8.77;3.33;;;8.60;61.80;;;;;;4975877;28;20199;-85
2022/02/19 00:49:45;;;;;;;5.97;2.67;;;8.60;61.10;;;;;;4972115;28;20207;-85
2022/02/19 00:52:10;;;;;;;8.70;3.13;;;8.60;61.90;;;;;;4988736;28;20214;-86
2022/02/19 00:54:36;;;;;;;8.73;3.10;;;8.50;61.80;;;;;;4979212;28;20718;-85
2022/02/19 00:57:02;;;;;;;8.47;3.00;;;8.50;62.10;;;;;;4974773;28;20215;-85
2022/02/19 00:59:27;;;;;;;9.40;2.90;;;8.40;62.10;;;;;;4978450;28;20222;-85
2022/02/19 01:01:55;;;;;;;10.43;2.97;;;8.30;61.90;;;;;;4974463;28;20545;-85
2022/02/19 01:04:21;;;;;;;7.80;2.63;;;8.40;61.40;;;;;;4971011;28;20821;-85
2022/02/19 01:06:47;;;;;;;10.13;2.30;;;8.40;61.70;;;;;;4979691;28;20284;-85
2022/02/19 01:09:13;;;;;;;8.37;3.00;;;8.40;58.40;;;;;;4972996;28;20283;-85
2022/02/19 01:11:39;;;;;;;9.30;3.43;;;8.40;59.40;;;;;;4974252;28;20749;-85
2022/02/19 01:14:07;;;;;;;7.77;2.40;;;8.40;58.30;;;;;;4973425;28;20204;-85
2022/02/19 01:16:33;;;;;;;8.90;2.63;;;8.40;57.70;;;;;;4972512;28;20605;-85
2022/02/19 01:18:58;;;;;;;6.47;2.67;;;8.30;56.80;;;;;;4970790;28;20235;-85
2022/02/19 01:21:24;;;;;;;5.70;2.20;;;8.30;56.20;;;;;;4974912;28;20287;-85
2022/02/19 01:23:50;;;;;;;8.77;2.87;;;8.30;57.00;;;;;;4967911;28;20211;-85
2022/02/19 01:26:16;;;;;;;5.80;2.80;;;8.20;56.00;;;;;;4979132;28;20199;-85
2022/02/19 01:28:42;;;;;;;5.33;2.17;;;8.30;56.10;;;;;;4977214;28;20206;-85
2022/02/19 01:31:08;;;;;;;7.47;2.63;;;8.30;56.80;;;;;;4969292;28;20188;-85
2022/02/19 01:33:34;;;;;;;5.20;2.17;;;8.20;56.10;;;;;;4968717;28;20231;-85
2022/02/19 01:36:00;;;;;;;8.37;2.80;;;8.20;56.10;;;;;;4982422;28;20207;-85
2022/02/19 01:38:27;;;;;;;6.57;2.23;;;8.10;56.50;;;;;;4982335;28;20277;-85
2022/02/19 01:40:53;;;;;;;8.23;2.67;;;8.00;57.10;;;;;;4971532;28;20191;-85
2022/02/19 01:43:19;;;;;;;5.73;2.70;;;8.00;56.60;;;;;;4978698;28;20290;-86
2022/02/19 01:45:47;;;;;;;7.17;2.50;;;8.00;58.20;;;;;;4978968;28;20297;-85
2022/02/19 01:48:12;;;;;;;7.37;2.90;;;7.90;57.20;;;;;;4982184;28;20254;-86
2022/02/19 01:50:38;;;;;;;5.83;2.67;;;8.00;57.60;;;;;;4981989;28;20190;-85
2022/02/19 01:53:05;;;;;;;8.43;2.97;;;7.90;57.90;;;;;;4980418;28;20222;-85
2022/02/19 01:55:30;;;;;;;12.30;3.90;;;7.90;58.40;;;;;;4977091;28;20192;-85
2022/02/19 01:57:57;;;;;;;5.70;2.40;;;7.80;58.00;;;;;;4983985;28;20206;-85
2022/02/19 02:00:23;;;;;;;6.43;2.57;;;7.90;57.20;;;;;;4974730;28;20227;-86
2022/02/19 02:02:49;;;;;;;7.07;2.80;;;7.90;57.40;;;;;;4993357;28;20206;-85
2022/02/19 02:05:15;;;;;;;5.90;3.03;;;7.80;57.70;;;;;;4982516;28;20656;-85
2022/02/19 02:07:41;;;;;;;11.00;2.90;;;7.80;58.00;;;;;;4983148;28;20615;-85
2022/02/19 02:10:07;;;;;;;6.40;2.77;;;7.90;57.90;;;;;;4977912;28;20202;-85
2022/02/19 02:12:34;;;;;;;10.97;3.37;;;7.80;59.10;;;;;;4972555;28;20214;-85
2022/02/19 02:15:00;;;;;;;14.33;3.00;;;7.80;58.70;;;;;;4979662;28;20242;-85
2022/02/19 02:17:26;;;;;;;7.93;2.93;;;7.80;59.70;;;;;;4982372;28;20203;-85
2022/02/19 02:19:54;;;;;;;8.77;3.23;;;7.70;59.60;;;;;;4989049;28;20298;-85
2022/02/19 02:22:20;;;;;;;11.23;3.43;;;7.70;59.50;;;;;;4977303;28;20215;-85
2022/02/19 02:24:47;;;;;;;8.60;2.80;;;7.70;59.00;;;;;;4976878;28;20910;-85
2022/02/19 02:27:13;;;;;;;5.47;2.90;;;7.80;59.10;;;;;;4972203;28;20179;-85
2022/02/19 02:29:47;;;;;;;7.77;2.40;;;7.70;60.00;;;;;;4973733;28;20263;-85
2022/02/19 02:34:56;;;;;;;10.83;2.70;;;7.60;60.00;;;;;;3648477;23;20761;-85
2022/02/19 02:37:25;;;;;;;7.53;2.40;;;7.60;59.80;;;;;;5013106;28;20182;-84
2022/02/19 02:39:51;;;;;;;7.03;2.23;;;7.60;59.60;;;;;;5018134;28;20225;-85
2022/02/19 02:42:20;;;;;;;8.13;2.63;;;7.60;58.60;;;;;;5016150;28;20212;-86
2022/02/19 02:44:47;;;;;;;9.10;2.87;;;7.60;59.70;;;;;;5023157;28;20178;-86
2022/02/19 02:47:13;;;;;;;9.07;3.83;;;7.50;60.10;;;;;;5016072;28;20210;-85
2022/02/19 02:49:39;;;;;;;12.40;2.60;;;7.50;60.40;;;;;;5029841;28;20201;-85
2022/02/19 02:52:07;;;;;;;7.47;2.77;;;7.50;61.00;;;;;;5027986;28;20205;-85
2022/02/19 02:54:33;;;;;;;4.80;2.03;;;7.40;60.90;;;;;;5028761;28;20178;-85
2022/02/19 02:56:59;;;;;;;7.50;2.57;;;7.40;61.40;;;;;;5018909;28;20198;-85
2022/02/19 02:59:25;;;;;;;10.23;2.87;;;7.30;61.90;;;;;;5029803;28;20202;-85
2022/02/19 03:01:50;;;;;;;7.70;2.90;;;7.30;60.60;;;;;;5018688;28;20186;-85
2022/02/19 03:04:16;;;;;;;7.83;3.40;;;7.20;60.80;;;;;;5019221;28;20245;-85
2022/02/19 03:06:42;;;;;;;7.43;2.77;;;7.20;61.30;;;;;;5022623;28;20753;-85
2022/02/19 03:09:08;;;;;;;7.47;2.63;;;7.20;60.80;;;;;;5006345;28;20194;-86
2022/02/19 03:11:35;;;;;;;6.87;2.40;;;7.10;61.70;;;;;;5022070;28;20190;-86
2022/02/19 03:14:02;;;;;;;7.63;2.37;;;7.10;60.90;;;;;;5022873;28;20295;-85
2022/02/19 03:16:28;;;;;;;9.23;2.97;;;7.20;61.60;;;;;;5019652;28;20583;-85
2022/02/19 03:18:54;;;;;;;7.33;3.10;;;7.10;61.90;;;;;;5023914;28;20241;-86
2022/02/19 03:21:20;;;;;;;9.60;2.60;;;7.00;62.20;;;;;;5021872;28;20221;-83
2022/02/19 03:23:46;;;;;;;9.47;3.40;;;7.00;62.00;;;;;;5023070;28;20212;-86
2022/02/19 03:26:12;;;;;;;8.13;3.00;;;7.00;62.30;;;;;;5030653;28;20206;-86
2022/02/19 03:28:38;;;;;;;14.13;2.77;;;7.00;63.00;;;;;;5019338;28;20214;-83
2022/02/19 03:31:04;;;;;;;7.97;2.43;;;6.90;63.40;;;;;;5025643;28;20180;-84
2022/02/19 03:33:30;;;;;;;4.80;2.73;;;6.90;62.90;;;;;;5014873;28;20233;-82
2022/02/19 03:35:55;;;;;;;6.83;2.87;;;6.80;63.20;;;;;;5014585;28;20271;-84
2022/02/19 03:38:22;;;;;;;7.20;2.70;;;6.90;63.50;;;;;;5014304;28;20209;-85
2022/02/19 03:40:47;;;;;;;6.10;2.90;;;6.90;63.50;;;;;;5014429;28;20221;-85
2022/02/19 03:43:13;;;;;;;6.77;2.57;;;6.90;64.00;;;;;;5022111;28;20216;-85
2022/02/19 03:45:43;;;;;;;10.83;3.30;;;6.80;63.50;;;;;;5000078;28;20193;-85
2022/02/19 03:48:10;;;;;;;6.80;2.40;;;6.80;64.40;;;;;;5023049;28;20284;-84
2022/02/19 03:50:36;;;;;;;5.17;2.33;;;6.90;64.90;;;;;;5014692;28;20678;-84
2022/02/19 03:53:02;;;;;;;8.37;2.77;;;6.70;64.60;;;;;;5017679;28;20228;-84
2022/02/19 03:55:28;;;;;;;7.43;2.67;;;6.70;64.20;;;;;;5019863;28;20616;-85
2022/02/19 03:57:54;;;;;;;17.50;3.00;;;6.60;64.80;;;;;;5021831;28;20181;-84
2022/02/19 04:00:21;;;;;;;11.87;3.17;;;6.70;65.00;;;;;;5018460;28;20224;-84
2022/02/19 04:02:47;;;;;;;10.87;3.30;;;6.60;65.60;;;;;;5010486;28;20225;-84
2022/02/19 04:05:14;;;;;;;8.67;3.00;;;6.60;64.60;;;;;;5017954;28;20169;-84
2022/02/19 04:07:40;;;;;;;7.73;2.50;;;6.70;64.20;;;;;;5021017;28;20193;-84
2022/02/19 04:10:07;;;;;;;9.07;2.50;;;6.70;64.40;;;;;;5015555;28;20237;-84
2022/02/19 04:12:34;;;;;;;7.53;2.37;;;6.70;65.30;;;;;;5031585;28;20248;-84
2022/02/19 04:15:00;;;;;;;9.93;2.87;;;6.70;64.50;;;;;;5011201;28;20187;-84
2022/02/19 04:17:26;;;;;;;11.97;2.93;;;6.70;65.80;;;;;;5013921;28;20208;-84
2022/02/19 04:19:53;;;;;;;6.17;2.80;;;6.60;65.00;;;;;;5017087;28;20245;-84
2022/02/19 04:22:25;;;;;;;10.07;2.43;;;6.60;64.60;;;;;;5015143;28;20216;-84
2022/02/19 04:24:51;;;;;;;8.43;2.40;;;6.60;64.80;;;;;;5025205;28;20190;-83
2022/02/19 04:27:19;;;;;;;5.17;2.10;;;6.70;62.90;;;;;;5020945;28;20233;-84
2022/02/19 04:29:45;;;;;;;9.33;3.00;;;6.60;64.10;;;;;;5010336;28;20221;-84
2022/02/19 04:32:12;;;;;;;12.97;2.87;;;6.60;64.90;;;;;;5011502;28;20217;-84
2022/02/19 04:34:37;;;;;;;6.70;2.40;;;6.60;63.90;;;;;;5018234;28;20230;-83
2022/02/19 04:37:04;;;;;;;11.13;3.07;;;6.50;64.90;;;;;;5013061;28;20197;-83
2022/02/19 04:39:30;;;;;;;8.93;3.03;;;6.50;64.70;;;;;;5009964;28;20214;-84
2022/02/19 04:41:56;;;;;;;8.73;2.70;;;6.40;65.10;;;;;;5017577;28;20604;-84
2022/02/19 04:44:21;;;;;;;12.60;3.33;;;6.40;65.70;;;;;;5012014;28;20213;-84
2022/02/19 04:46:47;;;;;;;6.93;2.80;;;6.30;66.40;;;;;;5005049;28;20189;-84
2022/02/19 04:49:13;;;;;;;8.30;2.40;;;6.30;65.90;;;;;;5016542;28;20206;-84
2022/02/19 04:51:39;;;;;;;8.53;2.80;;;6.40;65.50;;;;;;5015594;28;20185;-84
2022/02/19 04:54:05;;;;;;;7.07;2.70;;;6.30;66.30;;;;;;5017125;28;20218;-84
2022/02/19 04:56:32;;;;;;;6.10;2.50;;;6.30;65.90;;;;;;5009817;28;20202;-84
2022/02/19 04:58:59;;;;;;;11.77;2.70;;;6.30;65.70;;;;;;5016027;28;20219;-84
2022/02/19 05:01:25;;;;;;;8.77;2.17;;;6.30;65.80;;;;;;5015989;28;20238;-85
2022/02/19 05:03:54;;;;;;;6.83;2.93;;;6.20;65.80;;;;;;5015903;28;21073;-84
2022/02/19 05:06:20;;;;;;;9.07;3.10;;;6.20;65.70;;;;;;5013493;28;20200;-84
2022/02/19 05:08:46;;;;;;;12.03;2.80;;;6.30;66.00;;;;;;5017694;28;20216;-85
2022/02/19 05:11:12;;;;;;;9.43;2.93;;;6.10;66.90;;;;;;5007768;28;20182;-84
2022/02/19 05:13:38;;;;;;;8.87;2.77;;;6.10;67.30;;;;;;5018844;28;20755;-84
2022/02/19 05:16:04;;;;;;;7.67;2.63;;;6.10;66.10;;;;;;5010914;28;20192;-85
2022/02/19 05:18:30;;;;;;;6.80;2.67;;;6.10;66.50;;;;;;5007312;28;20182;-85
2022/02/19 05:20:56;;;;;;;9.33;2.73;;;6.10;66.70;;;;;;5012772;28;20289;-85
2022/02/19 05:23:22;;;;;;;10.33;2.53;;;6.00;67.20;;;;;;5013708;28;21068;-84
2022/02/19 05:25:50;;;;;;;10.67;3.33;;;6.00;66.90;;;;;;5012997;28;20189;-85
2022/02/19 05:28:16;;;;;;;11.07;2.73;;;5.90;67.00;;;;;;5012501;28;20216;-85
2022/02/19 05:30:42;;;;;;;5.80;2.27;;;6.00;66.90;;;;;;5018519;28;20193;-85
2022/02/19 05:33:08;;;;;;;7.93;3.53;;;5.90;67.20;;;;;;5013104;28;20209;-85
2022/02/19 05:35:34;;;;;;;7.00;3.10;;;5.90;67.10;;;;;;5015472;28;20241;-84
2022/02/19 05:38:00;;;;;;;7.43;2.87;;;5.90;67.20;;;;;;5013373;28;20201;-85
2022/02/19 05:40:26;;;;;;;10.87;2.93;;;5.80;67.40;;;;;;5013697;28;20550;-85
2022/02/19 05:42:52;;;;;;;7.13;2.60;;;5.80;67.60;;;;;;5016238;28;20553;-85
2022/02/19 05:45:18;;;;;;;6.17;2.47;;;5.90;67.40;;;;;;4995175;28;20253;-85
2022/02/19 05:47:44;;;;;;;7.20;2.80;;;5.90;67.20;;;;;;5011019;28;20249;-85
2022/02/19 05:50:11;;;;;;;10.10;2.80;;;5.80;67.70;;;;;;5005059;28;20223;-85
2022/02/19 05:52:37;;;;;;;7.73;2.33;;;5.80;67.10;;;;;;5012590;28;20260;-85
2022/02/19 05:55:03;;;;;;;7.63;2.60;;;5.90;66.60;;;;;;5011913;28;20193;-85
2022/02/19 05:57:28;;;;;;;6.03;2.33;;;5.80;67.00;;;;;;5007256;28;20281;-85
2022/02/19 05:59:54;;;;;;;5.43;2.73;;;5.80;66.60;;;;;;5000971;28;20237;-84
2022/02/19 06:02:20;;;;;;;7.40;2.47;;;5.80;66.70;;;;;;5009982;28;20487;-84
2022/02/19 06:04:46;;;;;;;11.07;2.17;;;5.80;66.80;;;;;;5013639;28;20234;-83
2022/02/19 06:07:12;;;;;;;5.20;2.30;;;5.80;66.00;;;;;;5008887;28;20209;-83
2022/02/19 06:09:37;;;;;;;5.07;2.00;;;5.80;66.20;;;;;;5014762;28;20286;-84
2022/02/19 06:12:04;;;;;;;5.87;2.37;;;5.70;66.80;;;;;;5011386;28;20225;-83
2022/02/19 06:14:29;;;;;;;7.77;2.87;;;5.70;67.30;;;;;;5012691;28;20193;-83
2022/02/19 06:16:55;;;;;;;6.53;2.43;;;5.70;66.70;;;;;;5018034;28;20202;-84
2022/02/19 06:19:23;;;;;;;9.37;2.10;;;5.60;67.20;;;;;;5010938;28;20245;-84
2022/02/19 06:21:49;;;;;;;7.63;2.30;;;5.60;66.80;;;;;;5011437;28;20193;-83
2022/02/19 06:24:14;;;;;;;5.80;2.20;;;5.50;68.00;;;;;;5016105;28;20229;-84
2022/02/19 06:26:40;;;;;;;6.73;2.53;;;5.60;67.30;;;;;;5017633;28;20189;-84
2022/02/19 06:29:06;;;;;;;9.20;2.70;;;5.60;67.80;;;;;;5012953;28;20185;-84
2022/02/19 06:31:32;;;;;;;7.70;2.53;;;5.50;68.00;;;;;;5019573;28;20198;-84
2022/02/19 06:33:58;;;;;;;6.73;2.47;;;5.50;67.90;;;;;;5017553;28;20217;-84
2022/02/19 06:36:23;;;;;;;6.63;2.20;;;5.50;68.80;;;;;;5016486;28;20206;-84
2022/02/19 06:38:49;;;;;;;5.73;3.17;;;5.50;68.70;;;;;;5007825;28;20206;-84
2022/02/19 06:41:15;;;;;;;6.90;2.40;;;5.50;68.00;;;;;;5021796;28;20185;-84
2022/02/19 06:43:41;;;;;;;9.73;2.30;;;5.60;68.00;;;;;;5021393;28;20229;-84
2022/02/19 06:46:07;;;;;;;6.23;2.30;;;5.50;67.90;;;;;;5026573;28;20674;-85
2022/02/19 06:48:32;;;;;;;5.83;2.50;;;5.50;69.10;;;;;;5019316;28;20198;-85
2022/02/19 06:50:58;;;;;;;11.73;2.43;;;5.50;68.50;;;;;;5015181;28;20273;-84
2022/02/19 06:53:26;;;;;;;7.27;2.40;;;5.60;68.30;;;;;;5017060;28;20236;-86
2022/02/19 06:55:52;;;;;;;5.87;2.47;;;5.50;69.00;;;;;;5013666;28;20193;-84
2022/02/19 06:58:18;;;;;;;5.00;2.70;;;5.50;69.10;;;;;;5022041;28;20189;-85
2022/02/19 07:00:44;;;;;;;6.10;2.73;;;5.50;69.10;;;;;;5011798;28;20210;-85
2022/02/19 07:03:10;;;;;;;6.17;2.20;;;5.50;69.50;;;;;;5013711;28;20210;-85
2022/02/19 07:05:36;;;;;;;6.90;2.10;;;5.50;69.30;;;;;;5021455;28;20249;-84
2022/02/19 07:08:02;;;;;;;7.03;2.17;;;5.50;69.10;;;;;;5016991;28;20289;-84
2022/02/19 07:10:28;;;;;;;8.17;2.40;;;5.40;69.80;;;;;;5023822;28;20220;-84
2022/02/19 07:12:55;;;;;;;5.40;2.37;;;5.50;70.00;;;;;;5020086;28;20218;-84
2022/02/19 07:15:20;;;;;;;6.80;2.60;;;5.40;70.40;;;;;;5016172;28;20196;-84
2022/02/19 07:17:54;;;;;;;11.13;3.50;;;5.50;69.80;;;;;;5015433;28;20201;-84
2022/02/19 07:20:23;;;;;;;7.80;2.93;;;5.40;70.40;;;;;;5021034;28;20807;-85
2022/02/19 07:22:50;;;;;;;5.17;2.20;;;5.50;70.40;;;;;;5016756;28;20236;-84
2022/02/19 07:25:17;;;;;;;9.03;3.20;;;5.50;71.00;;;;;;5011975;28;20217;-84
2022/02/19 07:27:45;;;;;;;5.87;2.90;;;5.40;71.10;;;;;;5016123;28;20190;-84
2022/02/19 07:30:14;;;;;;;10.63;2.60;;;5.50;71.20;;;;;;5020575;28;20204;-85
2022/02/19 07:32:40;;;;;;;5.10;2.67;;;5.50;71.20;;;;;;5021433;28;20813;-86
2022/02/19 07:35:07;;;;;;;9.30;3.07;;;5.50;70.60;;;;;;5009943;28;20202;-83
2022/02/19 07:37:37;;;;;;;8.90;2.50;;;5.50;70.70;;;;;;5014648;28;20194;-84
2022/02/19 07:40:04;;;;;;;9.13;2.37;;;5.50;70.60;;;;;;5016407;28;20213;-85
2022/02/19 07:42:30;;;;;;;8.40;2.70;;;5.60;70.60;;;;;;5015097;28;20248;-85
2022/02/19 07:44:56;;;;;;;6.73;2.73;;;5.60;71.50;;;;;;5010397;28;20190;-85
2022/02/19 07:47:27;;;;;;;7.43;2.50;;;5.60;71.50;;;;;;5015628;28;20193;-84
2022/02/19 07:58:40;;;;;;;7.73;2.73;;;5.70;70.50;;;;;;5016816;28;20272;-86
2022/02/19 08:01:01;;;;;;;10.73;2.43;;;5.70;70.10;;;;;;5013984;28;20246;-85
2022/02/19 08:03:29;;;;;;;5.77;2.40;;;5.70;70.40;;;;;;5006563;28;20280;-85
2022/02/19 08:05:55;;;;;;;13.50;2.87;;;5.80;70.70;;;;;;5010887;28;20209;-85
2022/02/19 08:08:22;;;;;;;9.57;2.60;;;5.90;70.00;;;;;;5013760;28;20193;-88
2022/02/19 08:10:48;;;;;;;13.27;3.20;;;5.90;70.90;;;;;;5009267;28;20189;-85
2022/02/19 08:13:18;;;;;;;9.90;2.70;;;5.90;70.60;;;;;;5011094;28;20257;-89
2022/02/19 08:15:45;;;;;;;6.57;2.53;;;5.90;70.50;;;;;;5011599;28;20187;-89
2022/02/19 08:18:12;;;;;;;7.33;2.90;;;6.00;71.00;;;;;;5015824;28;20216;-90
2022/02/19 08:20:42;;;;;;;5.57;2.90;;;6.00;69.40;;;;;;5006053;28;20223;-88
2022/02/19 08:23:10;;;;;;;7.20;2.97;;;6.10;70.90;;;;;;5011307;28;20206;-89
2022/02/19 08:25:37;;;;;;;12.13;3.33;;;6.20;70.00;;;;;;5008685;28;20196;-90
2022/02/19 08:28:05;;;;;;;5.37;2.40;;;6.10;70.20;;;;;;5008691;28;20190;-89
2022/02/19 08:30:33;;;;;;;8.70;2.30;;;6.20;69.70;;;;;;5005505;28;20185;-88
2022/02/19 08:32:59;;;;;;;7.50;2.40;;;6.20;70.20;;;;;;5017161;28;20193;-89
2022/02/19 08:35:24;;;;;;;9.83;3.10;;;6.20;68.80;;;;;;5004140;28;20205;-88
2022/02/19 08:37:50;;;;;;;4.87;2.23;;;6.20;68.70;;;;;;5007954;28;20205;-89
2022/02/19 08:40:16;;;;;;;9.53;2.73;;;6.20;69.00;;;;;;5007251;28;20209;-88
2022/02/19 08:42:42;;;;;;;11.67;3.07;;;6.20;68.80;;;;;;5006645;28;20210;-89
2022/02/19 08:45:09;;;;;;;9.53;2.60;;;6.20;69.10;;;;;;5009632;28;20316;-89
2022/02/19 08:47:35;;;;;;;8.37;2.20;;;6.40;68.50;;;;;;5017886;28;20245;-87
2022/02/19 08:50:01;;;;;;;7.60;2.90;;;6.40;68.50;;;;;;5011628;28;20201;-89
2022/02/19 08:52:27;;;;;;;9.03;2.97;;;6.40;68.70;;;;;;5011619;28;20633;-88
2022/02/19 08:54:54;;;;;;;8.07;2.67;;;6.40;69.80;;;;;;5006620;28;20244;-88
2022/02/19 08:57:20;;;;;;;7.63;2.73;;;6.50;68.40;;;;;;5013900;28;20261;-88
2022/02/19 08:59:46;;;;;;;3.83;2.50;;;6.60;68.60;;;;;;5010266;28;20359;-88
2022/02/19 09:02:12;;;;;;;8.07;3.40;;;6.70;67.60;;;;;;5002990;28;20711;-89
2022/02/19 09:04:37;;;;;;;11.60;3.03;;;6.70;67.70;;;;;;5014045;28;20189;-88
2022/02/19 09:07:03;;;;;;;7.93;2.53;;;6.70;68.10;;;;;;5008545;28;20666;-88
2022/02/19 09:09:29;;;;;;;6.43;2.67;;;6.60;66.50;;;;;;5012005;28;20190;-88
2022/02/19 09:11:55;;;;;;;9.80;2.90;;;6.70;68.00;;;;;;5005207;28;20293;-89
2022/02/19 09:14:21;;;;;;;5.60;2.50;;;6.70;66.90;;;;;;5008646;28;20198;-89
2022/02/19 09:16:47;;;;;;;5.53;2.40;;;6.70;65.90;;;;;;5010397;28;20200;-89
2022/02/19 09:19:12;;;;;;;8.83;3.37;;;6.70;65.70;;;;;;5018047;28;20209;-90
2022/02/19 09:21:40;;;;;;;6.53;2.50;;;6.70;66.80;;;;;;5012452;28;20258;-87
2022/02/19 09:24:06;;;;;;;6.10;2.60;;;6.80;66.00;;;;;;5009392;28;20676;-89
2022/02/19 09:26:32;;;;;;;9.70;2.97;;;6.80;66.40;;;;;;5010329;28;20271;-87
2022/02/19 09:28:58;;;;;;;7.20;2.63;;;6.70;65.30;;;;;;5014905;28;20193;-88
2022/02/19 09:31:23;;;;;;;7.57;2.63;;;6.80;65.00;;;;;;5011804;28;20194;-89
2022/02/19 09:33:49;;;;;;;9.30;3.20;;;6.80;65.70;;;;;;5018241;28;20225;-89
2022/02/19 09:36:16;;;;;;;5.63;2.83;;;6.80;66.60;;;;;;5016211;28;20190;-90
2022/02/19 09:38:42;;;;;;;7.50;2.73;;;6.80;66.00;;;;;;5021515;28;20192;-89
2022/02/19 09:41:12;;;;;;;8.43;2.73;;;6.80;64.90;;;;;;5025246;28;20184;-89
2022/02/19 09:43:39;;;;;;;10.57;2.87;;;6.70;65.60;;;;;;5019919;28;20205;-90
2022/02/19 09:46:06;;;;;;;6.43;2.20;;;6.80;66.40;;;;;;5024855;28;20189;-88
2022/02/19 09:48:33;;;;;;;10.33;2.97;;;6.90;66.10;;;;;;5026946;28;20181;-89
2022/02/19 09:50:59;;;;;;;6.53;2.27;;;7.10;64.10;;;;;;5011574;28;20241;-88
2022/02/19 09:53:26;;;;;;;9.07;2.47;;;7.30;65.00;;;;;;5016368;28;20602;-88
2022/02/19 09:55:53;;;;;;;8.07;3.20;;;7.30;63.20;;;;;;5016634;28;20178;-89
2022/02/19 09:58:19;;;;;;;7.93;2.43;;;7.40;63.50;;;;;;5033649;28;20260;-88
2022/02/19 10:00:46;;;;;;;5.87;2.47;;;7.60;63.90;;;;;;5019208;28;20222;-89
2022/02/19 10:03:23;;;;;;;13.00;2.60;;;7.60;63.60;;;;;;5020370;28;20593;-89
2022/02/19 10:05:50;;;;;;;11.83;3.53;;;7.70;63.00;;;;;;5021540;28;20181;-88
2022/02/19 10:08:17;;;;;;;5.03;2.50;;;7.80;62.20;;;;;;5025379;28;20285;-88
2022/02/19 10:10:47;;;;;;;5.83;2.60;;;7.60;63.80;;;;;;5025772;28;20701;-88
2022/02/19 10:13:37;;;;;;;7.43;2.50;;;7.70;62.00;;;;;;5020819;28;20232;-88
2022/02/19 10:16:05;;;;;;;9.07;4.20;;;7.80;60.90;;;;;;5034371;28;20190;-88
2022/02/19 10:18:36;;;;;;;60.23;42.10;;;8.10;60.20;;;;;;5024203;28;20553;-88
2022/02/19 10:21:11;;;;;;;19.50;12.03;;;8.30;60.10;;;;;;5024148;28;20220;-89
2022/02/19 10:23:41;;;;;;;4.23;2.83;;;8.30;60.00;;;;;;5019344;28;20213;-89
2022/02/19 10:26:08;;;;;;;7.73;3.13;;;8.40;58.40;;;;;;5016033;28;20219;-89
2022/02/19 10:28:34;;;;;;;4.97;2.47;;;8.20;59.70;;;;;;5017156;28;20186;-88
2022/02/19 10:31:15;;;;;;;10.23;3.40;;;8.20;59.10;;;;;;5027084;28;20212;-88
2022/02/19 10:33:41;;;;;;;8.87;2.73;;;8.00;60.70;;;;;;5020027;28;20220;-88
2022/02/19 10:36:45;;;;;;;6.83;2.87;;;8.10;61.50;;;;;;5023083;28;20205;-89
2022/02/19 10:39:11;;;;;;;7.87;3.00;;;7.90;61.60;;;;;;5022294;28;20205;-88
2022/02/19 10:41:39;;;;;;;7.00;3.63;;;8.00;61.60;;;;;;5019763;28;20204;-89
2022/02/19 10:44:25;;;;;;;6.70;2.60;;;8.00;61.00;;;;;;5019851;28;20222;-89
2022/02/19 10:46:53;;;;;;;5.30;2.60;;;8.00;62.20;;;;;;5014563;28;20200;-88
2022/02/19 10:49:19;;;;;;;8.03;2.63;;;8.40;59.40;;;;;;5019616;28;20205;-89
2022/02/19 10:51:45;;;;;;;8.37;3.60;;;8.50;59.50;;;;;;5020527;28;20225;-90
2022/02/19 10:54:17;;;;;;;7.73;3.13;;;8.60;59.50;;;;;;5022619;28;20225;-88
2022/02/19 10:56:44;;;;;;;9.97;2.93;;;8.60;58.10;;;;;;5014014;28;20237;-90
2022/02/19 10:59:13;;;;;;;6.83;2.47;;;8.80;58.30;;;;;;5023406;28;20225;-89
2022/02/19 11:01:50;;;;;;;9.10;2.57;;;9.20;58.00;;;;;;5020761;28;20192;-90
2022/02/19 11:04:21;;;;;;;6.37;2.90;;;9.40;56.30;;;;;;5033510;28;20649;-90
2022/02/19 11:06:50;;;;;;;9.27;3.00;;;9.20;56.40;;;;;;5022667;28;20193;-89
2022/02/19 11:09:16;;;;;;;6.43;2.73;;;9.20;56.90;;;;;;5022568;28;20197;-89
2022/02/19 11:11:45;;;;;;;10.80;2.93;;;8.80;57.00;;;;;;5018692;28;20200;-89
2022/02/19 11:14:14;;;;;;;9.77;3.17;;;8.50;57.60;;;;;;5019387;28;20190;-89
2022/02/19 11:16:51;;;;;;;8.80;2.70;;;8.50;57.60;;;;;;5036183;28;20218;-89
2022/02/19 11:19:17;;;;;;;6.37;2.70;;;8.20;59.80;;;;;;5033588;28;20320;-90
2022/02/19 11:21:44;;;;;;;7.30;2.90;;;8.30;59.20;;;;;;5007429;28;20183;-89
2022/02/19 11:24:10;;;;;;;8.83;2.30;;;8.70;58.20;;;;;;5018261;28;20205;-91
2022/02/19 11:26:37;;;;;;;9.03;2.50;;;8.30;58.50;;;;;;5020861;28;20193;-89
2022/02/19 11:29:07;;;;;;;10.50;3.00;;;8.20;59.50;;;;;;5026515;28;20268;-89
2022/02/19 11:31:35;;;;;;;6.63;2.90;;;8.10;60.60;;;;;;5015820;28;20678;-89
2022/02/19 11:34:04;;;;;;;8.07;2.80;;;8.50;60.30;;;;;;5022118;28;20292;-88
2022/02/19 11:36:31;;;;;;;5.53;2.70;;;9.00;57.00;;;;;;5023221;28;20244;-89
2022/02/19 11:38:57;;;;;;;8.70;2.30;;;9.30;55.40;;;;;;5018209;28;20225;-90
2022/02/19 11:41:37;;;;;;;9.63;2.30;;;9.40;55.10;;;;;;5021143;28;20179;-89
2022/02/19 11:44:23;;;;;;;6.87;2.63;;;9.70;52.90;;;;;;5019127;28;20206;-89
2022/02/19 11:46:51;;;;;;;7.63;2.80;;;9.60;51.80;;;;;;5020069;28;20277;-89
2022/02/19 11:49:18;;;;;;;7.13;2.47;;;9.50;52.00;;;;;;5032752;28;20213;-90
2022/02/19 11:51:44;;;;;;;7.47;2.30;;;9.90;52.20;;;;;;5023144;28;20194;-89
2022/02/19 11:54:10;;;;;;;6.63;2.67;;;10.10;52.30;;;;;;5019020;28;20713;-90
2022/02/19 11:56:41;;;;;;;8.03;2.63;;;9.70;52.00;;;;;;5013166;28;20637;-89
2022/02/19 11:59:12;;;;;;;9.17;3.10;;;9.40;54.10;;;;;;5011435;28;20222;-89
2022/02/19 12:01:45;;;;;;;5.90;2.60;;;9.10;52.40;;;;;;5022012;28;20225;-89
2022/02/19 12:04:15;;;;;;;5.30;2.33;;;8.80;56.30;;;;;;5018700;28;20263;-89
2022/02/19 12:06:46;;;;;;;3.73;2.20;;;8.70;53.30;;;;;;5024275;28;20228;-89
2022/02/19 12:09:19;;;;;;;4.70;2.10;;;9.20;51.30;;;;;;5022813;28;20186;-90
2022/02/19 12:12:04;;;;;;;6.70;2.67;;;9.30;50.90;;;;;;5041452;28;20190;-89
2022/02/19 12:14:47;;;;;;;6.83;2.97;;;9.00;51.30;;;;;;5013629;28;20198;-89
2022/02/19 12:17:14;;;;;;;5.60;2.50;;;8.90;52.00;;;;;;5013205;28;20192;-89
2022/02/19 12:19:56;;;;;;;4.93;2.47;;;9.20;51.10;;;;;;5017630;28;20240;-89
2022/02/19 12:22:36;;;;;;;8.60;2.77;;;9.30;51.80;;;;;;5020332;28;20189;-89
2022/02/19 12:25:09;;;;;;;8.40;3.00;;;9.40;49.90;;;;;;5031366;28;20185;-89
2022/02/19 12:27:36;;;;;;;5.30;2.30;;;9.40;50.10;;;;;;5000643;28;20233;-89
2022/02/19 12:30:21;;;;;;;10.50;4.57;;;9.50;49.70;;;;;;5023309;28;20260;-88
2022/02/19 12:32:58;;;;;;;6.57;3.90;;;9.20;49.60;;;;;;5027059;28;20229;-92
2022/02/19 12:35:38;;;;;;;7.03;2.87;;;9.00;50.80;;;;;;5023756;28;20209;-90
2022/02/19 12:38:10;;;;;;;7.37;4.07;;;9.00;52.40;;;;;;5022991;28;20193;-90
2022/02/19 12:40:36;;;;;;;8.87;5.67;;;9.10;53.20;;;;;;5010070;28;20509;-90
2022/02/19 12:43:02;;;;;;;8.70;2.37;;;9.90;49.70;;;;;;5024689;28;20849;-90
2022/02/19 12:45:27;;;;;;;12.57;8.33;;;10.40;47.50;;;;;;5024613;28;20881;-91
2022/02/19 12:47:54;;;;;;;9.27;4.87;;;10.80;46.00;;;;;;5015847;28;20192;-90
2022/02/19 12:50:20;;;;;;;11.97;7.77;;;11.00;45.90;;;;;;5011160;28;20217;-91
2022/02/19 12:52:52;;;;;;;7.87;2.43;;;11.10;42.20;;;;;;5018221;28;20210;-91
2022/02/19 12:55:19;;;;;;;3.80;2.37;;;11.10;41.50;;;;;;5014821;28;20676;-91
2022/02/19 12:57:51;;;;;;;5.30;3.00;;;10.90;39.40;;;;;;5027908;28;20188;-91
2022/02/19 13:00:18;;;;;;;4.20;2.10;;;11.20;40.40;;;;;;5024229;28;20235;-90
2022/02/19 13:02:45;;;;;;;5.50;3.03;;;11.40;40.40;;;;;;5021148;28;20236;-90
2022/02/19 13:05:13;;;;;;;4.60;2.00;;;11.50;40.60;;;;;;5024917;28;20182;-91
2022/02/19 13:07:40;;;;;;;3.93;2.03;;;11.90;40.00;;;;;;5025453;28;20191;-91